sensor_id;sensor_type;location;lat;lon;timestamp;P1;durP1;ratioP1;P2;durP2;ratioP2
58784;SDS011;44557;51.862;19.378;2023-04-01T00:00:32;13.50;;;9.30;;
58784;SDS011;44557;51.862;19.378;2023-04-01T00:02:49;15.80;;;11.10;;
58784;SDS011;44557;51.862;19.378;2023-04-01T00:04:50;15.60;;;10.30;;
58784;SDS011;44557;51.862;19.378;2023-04-01T00:06:55;16.00;;;9.70;;
58784;SDS011;44557;51.862;19.378;2023-04-01T00:08:57;20.20;;;13.50;;
58784;SDS011;44557;51.862;19.378;2023-04-01T00:10:58;19.30;;;12.60;;
58784;SDS011;44557;51.862;19.378;2023-04-01T00:13:00;15.60;;;10.80;;
58784;SDS011;44557;51.862;19.378;2023-04-01T00:15:01;15.20;;;9.80;;
58784;SDS011;44557;51.862;19.378;2023-04-01T00:17:03;13.50;;;9.80;;
58784;SDS011;44557;51.862;19.378;2023-04-01T00:19:04;13.60;;;9.90;;
58784;SDS011;44557;51.862;19.378;2023-04-01T00:21:05;13.20;;;9.30;;
58784;SDS011;44557;51.862;19.378;2023-04-01T00:23:07;12.60;;;9.00;;
58784;SDS011;44557;51.862;19.378;2023-04-01T00:25:08;12.50;;;8.90;;
58784;SDS011;44557;51.862;19.378;2023-04-01T00:27:09;10.50;;;7.70;;
58784;SDS011;44557;51.862;19.378;2023-04-01T00:29:10;13.90;;;8.40;;
58784;SDS011;44557;51.862;19.378;2023-04-01T00:31:11;11.30;;;7.60;;
58784;SDS011;44557;51.862;19.378;2023-04-01T00:33:12;10.30;;;6.20;;
58784;SDS011;44557;51.862;19.378;2023-04-01T00:35:14;9.60;;;6.40;;
58784;SDS011;44557;51.862;19.378;2023-04-01T00:37:15;10.10;;;6.40;;
58784;SDS011;44557;51.862;19.378;2023-04-01T00:39:16;8.60;;;6.20;;
58784;SDS011;44557;51.862;19.378;2023-04-01T00:41:18;12.40;;;6.50;;
58784;SDS011;44557;51.862;19.378;2023-04-01T00:43:20;11.60;;;7.20;;
58784;SDS011;44557;51.862;19.378;2023-04-01T00:45:37;9.50;;;6.60;;
58784;SDS011;44557;51.862;19.378;2023-04-01T00:47:40;16.20;;;10.90;;
58784;SDS011;44557;51.862;19.378;2023-04-01T00:49:42;13.90;;;8.60;;
58784;SDS011;44557;51.862;19.378;2023-04-01T00:51:47;12.60;;;7.80;;
58784;SDS011;44557;51.862;19.378;2023-04-01T00:53:55;12.80;;;7.30;;
58784;SDS011;44557;51.862;19.378;2023-04-01T00:56:05;13.10;;;8.10;;
58784;SDS011;44557;51.862;19.378;2023-04-01T00:58:14;10.00;;;7.00;;
58784;SDS011;44557;51.862;19.378;2023-04-01T01:00:17;11.90;;;7.10;;
58784;SDS011;44557;51.862;19.378;2023-04-01T01:02:19;11.30;;;7.70;;
58784;SDS011;44557;51.862;19.378;2023-04-01T01:04:28;12.40;;;8.60;;
58784;SDS011;44557;51.862;19.378;2023-04-01T01:06:52;15.60;;;10.20;;
58784;SDS011;44557;51.862;19.378;2023-04-01T01:09:15;12.30;;;8.50;;
58784;SDS011;44557;51.862;19.378;2023-04-01T01:11:29;10.70;;;7.50;;
58784;SDS011;44557;51.862;19.378;2023-04-01T01:13:43;12.90;;;8.20;;
58784;SDS011;44557;51.862;19.378;2023-04-01T01:16:00;9.60;;;7.20;;
58784;SDS011;44557;51.862;19.378;2023-04-01T01:24:51;11.30;;;8.30;;
58784;SDS011;44557;51.862;19.378;2023-04-01T01:27:11;11.10;;;8.00;;
58784;SDS011;44557;51.862;19.378;2023-04-01T01:34:35;9.50;;;7.50;;
58784;SDS011;44557;51.862;19.378;2023-04-01T01:36:45;10.20;;;7.50;;
58784;SDS011;44557;51.862;19.378;2023-04-01T01:38:51;9.60;;;7.50;;
58784;SDS011;44557;51.862;19.378;2023-04-01T01:40:53;11.10;;;7.70;;
58784;SDS011;44557;51.862;19.378;2023-04-01T01:42:59;10.70;;;7.70;;
58784;SDS011;44557;51.862;19.378;2023-04-01T01:45:06;9.90;;;7.60;;
58784;SDS011;44557;51.862;19.378;2023-04-01T01:47:09;10.90;;;7.80;;
58784;SDS011;44557;51.862;19.378;2023-04-01T01:49:11;10.60;;;7.50;;
58784;SDS011;44557;51.862;19.378;2023-04-01T01:51:13;11.00;;;7.60;;
58784;SDS011;44557;51.862;19.378;2023-04-01T01:53:15;11.20;;;8.00;;
58784;SDS011;44557;51.862;19.378;2023-04-01T01:55:30;10.50;;;8.00;;
58784;SDS011;44557;51.862;19.378;2023-04-01T01:57:34;10.50;;;8.10;;
58784;SDS011;44557;51.862;19.378;2023-04-01T01:59:38;12.00;;;7.90;;
58784;SDS011;44557;51.862;19.378;2023-04-01T02:01:43;13.70;;;8.60;;
58784;SDS011;44557;51.862;19.378;2023-04-01T02:03:49;11.40;;;8.70;;
58784;SDS011;44557;51.862;19.378;2023-04-01T02:05:53;13.10;;;10.00;;
58784;SDS011;44557;51.862;19.378;2023-04-01T02:08:01;13.80;;;9.60;;
58784;SDS011;44557;51.862;19.378;2023-04-01T02:10:07;14.40;;;10.70;;
58784;SDS011;44557;51.862;19.378;2023-04-01T02:12:09;13.40;;;10.30;;
58784;SDS011;44557;51.862;19.378;2023-04-01T02:14:14;13.70;;;10.90;;
58784;SDS011;44557;51.862;19.378;2023-04-01T02:16:23;15.20;;;11.20;;
58784;SDS011;44557;51.862;19.378;2023-04-01T02:18:36;15.30;;;11.60;;
58784;SDS011;44557;51.862;19.378;2023-04-01T02:20:39;15.30;;;11.50;;
58784;SDS011;44557;51.862;19.378;2023-04-01T02:22:43;16.70;;;12.20;;
58784;SDS011;44557;51.862;19.378;2023-04-01T02:24:49;16.90;;;12.30;;
58784;SDS011;44557;51.862;19.378;2023-04-01T02:26:52;17.00;;;12.60;;
58784;SDS011;44557;51.862;19.378;2023-04-01T02:28:54;17.60;;;13.50;;
58784;SDS011;44557;51.862;19.378;2023-04-01T02:30:57;17.30;;;13.80;;
58784;SDS011;44557;51.862;19.378;2023-04-01T02:33:01;16.80;;;13.30;;
58784;SDS011;44557;51.862;19.378;2023-04-01T02:35:05;17.60;;;13.40;;
58784;SDS011;44557;51.862;19.378;2023-04-01T02:37:07;17.20;;;13.70;;
58784;SDS011;44557;51.862;19.378;2023-04-01T02:39:08;21.20;;;14.40;;
58784;SDS011;44557;51.862;19.378;2023-04-01T02:41:09;18.50;;;13.90;;
58784;SDS011;44557;51.862;19.378;2023-04-01T02:43:11;19.10;;;15.10;;
58784;SDS011;44557;51.862;19.378;2023-04-01T02:45:12;19.30;;;15.10;;
58784;SDS011;44557;51.862;19.378;2023-04-01T02:47:14;21.00;;;14.70;;
58784;SDS011;44557;51.862;19.378;2023-04-01T02:49:15;17.70;;;15.00;;
58784;SDS011;44557;51.862;19.378;2023-04-01T02:51:16;19.30;;;15.40;;
58784;SDS011;44557;51.862;19.378;2023-04-01T02:53:16;18.30;;;15.50;;
58784;SDS011;44557;51.862;19.378;2023-04-01T02:55:17;18.60;;;14.80;;
58784;SDS011;44557;51.862;19.378;2023-04-01T02:57:18;18.90;;;14.70;;
58784;SDS011;44557;51.862;19.378;2023-04-01T02:59:19;16.40;;;13.40;;
58784;SDS011;44557;51.862;19.378;2023-04-01T03:01:20;19.20;;;14.30;;
58784;SDS011;44557;51.862;19.378;2023-04-01T03:03:22;17.90;;;13.80;;
58784;SDS011;44557;51.862;19.378;2023-04-01T03:05:23;16.90;;;13.80;;
58784;SDS011;44557;51.862;19.378;2023-04-01T03:07:24;15.80;;;13.10;;
58784;SDS011;44557;51.862;19.378;2023-04-01T03:09:25;15.80;;;12.80;;
58784;SDS011;44557;51.862;19.378;2023-04-01T03:11:26;15.00;;;12.40;;
58784;SDS011;44557;51.862;19.378;2023-04-01T03:13:27;13.90;;;11.00;;
58784;SDS011;44557;51.862;19.378;2023-04-01T03:15:28;15.30;;;11.80;;
58784;SDS011;44557;51.862;19.378;2023-04-01T03:17:29;15.50;;;11.10;;
58784;SDS011;44557;51.862;19.378;2023-04-01T03:19:30;14.30;;;11.20;;
58784;SDS011;44557;51.862;19.378;2023-04-01T03:21:31;14.30;;;11.00;;
58784;SDS011;44557;51.862;19.378;2023-04-01T03:23:32;13.20;;;9.90;;
58784;SDS011;44557;51.862;19.378;2023-04-01T03:25:33;13.00;;;10.00;;
58784;SDS011;44557;51.862;19.378;2023-04-01T03:27:34;14.10;;;10.00;;
58784;SDS011;44557;51.862;19.378;2023-04-01T03:29:38;15.90;;;10.20;;
58784;SDS011;44557;51.862;19.378;2023-04-01T03:31:39;13.00;;;9.50;;
58784;SDS011;44557;51.862;19.378;2023-04-01T03:33:40;14.20;;;9.30;;
58784;SDS011;44557;51.862;19.378;2023-04-01T03:35:41;11.50;;;9.10;;
58784;SDS011;44557;51.862;19.378;2023-04-01T03:37:42;13.30;;;9.50;;
58784;SDS011;44557;51.862;19.378;2023-04-01T03:39:43;12.20;;;9.10;;
58784;SDS011;44557;51.862;19.378;2023-04-01T03:41:44;13.40;;;9.40;;
58784;SDS011;44557;51.862;19.378;2023-04-01T03:43:46;13.20;;;9.00;;
58784;SDS011;44557;51.862;19.378;2023-04-01T03:45:48;13.20;;;8.90;;
58784;SDS011;44557;51.862;19.378;2023-04-01T03:47:51;11.70;;;8.40;;
58784;SDS011;44557;51.862;19.378;2023-04-01T03:49:52;13.30;;;8.50;;
58784;SDS011;44557;51.862;19.378;2023-04-01T03:51:53;11.80;;;8.10;;
58784;SDS011;44557;51.862;19.378;2023-04-01T03:53:54;14.10;;;8.90;;
58784;SDS011;44557;51.862;19.378;2023-04-01T03:55:55;12.40;;;8.10;;
58784;SDS011;44557;51.862;19.378;2023-04-01T03:57:56;10.20;;;7.70;;
58784;SDS011;44557;51.862;19.378;2023-04-01T03:59:58;11.70;;;7.80;;
58784;SDS011;44557;51.862;19.378;2023-04-01T04:01:58;12.90;;;7.90;;
58784;SDS011;44557;51.862;19.378;2023-04-01T04:04:00;11.60;;;8.50;;
58784;SDS011;44557;51.862;19.378;2023-04-01T04:06:01;12.50;;;7.90;;
58784;SDS011;44557;51.862;19.378;2023-04-01T04:08:02;12.20;;;8.20;;
58784;SDS011;44557;51.862;19.378;2023-04-01T04:10:03;12.30;;;8.20;;
58784;SDS011;44557;51.862;19.378;2023-04-01T04:12:05;11.30;;;8.20;;
58784;SDS011;44557;51.862;19.378;2023-04-01T04:14:06;11.40;;;7.90;;
58784;SDS011;44557;51.862;19.378;2023-04-01T04:16:07;11.10;;;7.50;;
58784;SDS011;44557;51.862;19.378;2023-04-01T04:18:09;11.40;;;8.00;;
58784;SDS011;44557;51.862;19.378;2023-04-01T04:20:09;11.50;;;7.90;;
58784;SDS011;44557;51.862;19.378;2023-04-01T04:22:10;12.50;;;8.40;;
58784;SDS011;44557;51.862;19.378;2023-04-01T04:24:12;11.00;;;7.80;;
58784;SDS011;44557;51.862;19.378;2023-04-01T04:26:13;13.70;;;9.10;;
58784;SDS011;44557;51.862;19.378;2023-04-01T04:28:15;13.20;;;7.80;;
58784;SDS011;44557;51.862;19.378;2023-04-01T04:30:16;11.40;;;8.50;;
58784;SDS011;44557;51.862;19.378;2023-04-01T04:32:17;11.00;;;8.00;;
58784;SDS011;44557;51.862;19.378;2023-04-01T04:34:18;12.30;;;8.60;;
58784;SDS011;44557;51.862;19.378;2023-04-01T04:36:19;10.80;;;8.00;;
58784;SDS011;44557;51.862;19.378;2023-04-01T04:38:21;12.30;;;8.30;;
58784;SDS011;44557;51.862;19.378;2023-04-01T04:40:22;12.60;;;8.20;;
58784;SDS011;44557;51.862;19.378;2023-04-01T04:42:23;12.90;;;8.50;;
58784;SDS011;44557;51.862;19.378;2023-04-01T04:44:24;12.70;;;8.10;;
58784;SDS011;44557;51.862;19.378;2023-04-01T04:46:25;12.50;;;8.40;;
58784;SDS011;44557;51.862;19.378;2023-04-01T04:48:26;10.90;;;7.50;;
58784;SDS011;44557;51.862;19.378;2023-04-01T04:50:27;14.30;;;8.60;;
58784;SDS011;44557;51.862;19.378;2023-04-01T04:52:28;13.20;;;8.10;;
58784;SDS011;44557;51.862;19.378;2023-04-01T04:54:29;12.30;;;7.70;;
58784;SDS011;44557;51.862;19.378;2023-04-01T04:56:30;11.70;;;7.80;;
58784;SDS011;44557;51.862;19.378;2023-04-01T04:58:31;11.80;;;8.00;;
58784;SDS011;44557;51.862;19.378;2023-04-01T05:00:32;12.40;;;7.30;;
58784;SDS011;44557;51.862;19.378;2023-04-01T05:02:33;11.00;;;7.60;;
58784;SDS011;44557;51.862;19.378;2023-04-01T05:04:35;10.80;;;7.10;;
58784;SDS011;44557;51.862;19.378;2023-04-01T05:06:37;9.70;;;6.60;;
58784;SDS011;44557;51.862;19.378;2023-04-01T05:08:37;10.30;;;7.10;;
58784;SDS011;44557;51.862;19.378;2023-04-01T05:10:40;11.40;;;7.00;;
58784;SDS011;44557;51.862;19.378;2023-04-01T05:12:40;9.90;;;7.00;;
58784;SDS011;44557;51.862;19.378;2023-04-01T05:14:41;9.70;;;6.40;;
58784;SDS011;44557;51.862;19.378;2023-04-01T05:16:42;10.10;;;6.70;;
58784;SDS011;44557;51.862;19.378;2023-04-01T05:18:43;10.30;;;6.70;;
58784;SDS011;44557;51.862;19.378;2023-04-01T05:20:51;9.90;;;6.50;;
58784;SDS011;44557;51.862;19.378;2023-04-01T05:22:59;10.70;;;7.00;;
58784;SDS011;44557;51.862;19.378;2023-04-01T05:25:00;10.50;;;6.50;;
58784;SDS011;44557;51.862;19.378;2023-04-01T05:27:01;10.80;;;7.00;;
58784;SDS011;44557;51.862;19.378;2023-04-01T05:29:03;10.20;;;7.40;;
58784;SDS011;44557;51.862;19.378;2023-04-01T05:31:05;10.60;;;6.50;;
58784;SDS011;44557;51.862;19.378;2023-04-01T05:33:07;12.80;;;7.10;;
58784;SDS011;44557;51.862;19.378;2023-04-01T05:35:09;10.80;;;6.60;;
58784;SDS011;44557;51.862;19.378;2023-04-01T05:37:10;12.70;;;6.90;;
58784;SDS011;44557;51.862;19.378;2023-04-01T05:39:11;10.50;;;6.80;;
58784;SDS011;44557;51.862;19.378;2023-04-01T05:41:12;11.60;;;7.40;;
58784;SDS011;44557;51.862;19.378;2023-04-01T05:43:13;11.60;;;7.40;;
58784;SDS011;44557;51.862;19.378;2023-04-01T05:45:14;10.80;;;6.70;;
58784;SDS011;44557;51.862;19.378;2023-04-01T05:47:16;9.70;;;7.00;;
58784;SDS011;44557;51.862;19.378;2023-04-01T05:49:17;10.90;;;6.90;;
58784;SDS011;44557;51.862;19.378;2023-04-01T05:51:17;10.20;;;6.70;;
58784;SDS011;44557;51.862;19.378;2023-04-01T05:53:18;10.80;;;7.10;;
58784;SDS011;44557;51.862;19.378;2023-04-01T05:55:19;10.90;;;6.80;;
58784;SDS011;44557;51.862;19.378;2023-04-01T05:57:21;10.60;;;7.00;;
58784;SDS011;44557;51.862;19.378;2023-04-01T05:59:22;12.10;;;7.10;;
58784;SDS011;44557;51.862;19.378;2023-04-01T06:01:22;9.60;;;6.90;;
58784;SDS011;44557;51.862;19.378;2023-04-01T06:03:23;12.20;;;7.30;;
58784;SDS011;44557;51.862;19.378;2023-04-01T06:05:26;9.90;;;7.00;;
58784;SDS011;44557;51.862;19.378;2023-04-01T06:07:29;11.00;;;7.40;;
58784;SDS011;44557;51.862;19.378;2023-04-01T06:09:29;10.50;;;7.90;;
58784;SDS011;44557;51.862;19.378;2023-04-01T06:11:38;11.90;;;8.00;;
58784;SDS011;44557;51.862;19.378;2023-04-01T06:18:34;10.70;;;7.80;;
58784;SDS011;44557;51.862;19.378;2023-04-01T06:41:06;11.20;;;7.90;;
58784;SDS011;44557;51.862;19.378;2023-04-01T06:43:42;12.30;;;8.50;;
58784;SDS011;44557;51.862;19.378;2023-04-01T06:51:02;13.10;;;8.40;;
58784;SDS011;44557;51.862;19.378;2023-04-01T06:53:20;9.30;;;7.50;;
58784;SDS011;44557;51.862;19.378;2023-04-01T06:55:35;9.90;;;7.60;;
58784;SDS011;44557;51.862;19.378;2023-04-01T06:57:43;10.50;;;7.30;;
58784;SDS011;44557;51.862;19.378;2023-04-01T06:59:48;10.60;;;7.20;;
58784;SDS011;44557;51.862;19.378;2023-04-01T07:01:50;10.00;;;7.40;;
58784;SDS011;44557;51.862;19.378;2023-04-01T07:03:59;11.30;;;8.20;;
58784;SDS011;44557;51.862;19.378;2023-04-01T07:06:06;11.30;;;7.50;;
58784;SDS011;44557;51.862;19.378;2023-04-01T07:08:29;10.10;;;7.40;;
58784;SDS011;44557;51.862;19.378;2023-04-01T07:10:43;10.20;;;7.60;;
58784;SDS011;44557;51.862;19.378;2023-04-01T07:12:51;10.80;;;7.70;;
58784;SDS011;44557;51.862;19.378;2023-04-01T07:14:57;10.90;;;8.30;;
58784;SDS011;44557;51.862;19.378;2023-04-01T07:19:16;12.20;;;7.80;;
58784;SDS011;44557;51.862;19.378;2023-04-01T07:21:22;10.90;;;7.10;;
58784;SDS011;44557;51.862;19.378;2023-04-01T07:23:32;11.30;;;7.70;;
58784;SDS011;44557;51.862;19.378;2023-04-01T07:25:38;9.90;;;7.70;;
58784;SDS011;44557;51.862;19.378;2023-04-01T07:27:44;10.00;;;7.50;;
58784;SDS011;44557;51.862;19.378;2023-04-01T07:29:46;11.10;;;7.90;;
58784;SDS011;44557;51.862;19.378;2023-04-01T07:34:12;10.80;;;6.70;;
58784;SDS011;44557;51.862;19.378;2023-04-01T07:36:20;10.30;;;7.20;;
58784;SDS011;44557;51.862;19.378;2023-04-01T07:40:55;9.20;;;7.30;;
58784;SDS011;44557;51.862;19.378;2023-04-01T07:48:24;10.30;;;7.30;;
58784;SDS011;44557;51.862;19.378;2023-04-01T07:57:41;11.80;;;7.90;;
58784;SDS011;44557;51.862;19.378;2023-04-01T08:04:12;9.60;;;7.40;;
58784;SDS011;44557;51.862;19.378;2023-04-01T08:06:39;9.40;;;7.10;;
58784;SDS011;44557;51.862;19.378;2023-04-01T08:13:40;12.40;;;8.90;;
58784;SDS011;44557;51.862;19.378;2023-04-01T08:21:07;11.00;;;7.50;;
58784;SDS011;44557;51.862;19.378;2023-04-01T08:23:19;10.40;;;7.50;;
58784;SDS011;44557;51.862;19.378;2023-04-01T08:25:24;10.60;;;7.70;;
58784;SDS011;44557;51.862;19.378;2023-04-01T08:27:41;10.90;;;8.00;;
58784;SDS011;44557;51.862;19.378;2023-04-01T08:29:51;11.20;;;8.10;;
58784;SDS011;44557;51.862;19.378;2023-04-01T08:32:08;12.10;;;7.60;;
58784;SDS011;44557;51.862;19.378;2023-04-01T08:34:15;10.70;;;6.90;;
58784;SDS011;44557;51.862;19.378;2023-04-01T08:36:24;9.60;;;7.00;;
58784;SDS011;44557;51.862;19.378;2023-04-01T08:38:31;10.70;;;7.10;;
58784;SDS011;44557;51.862;19.378;2023-04-01T08:46:05;9.90;;;7.50;;
58784;SDS011;44557;51.862;19.378;2023-04-01T08:55:40;10.80;;;8.10;;
58784;SDS011;44557;51.862;19.378;2023-04-01T09:02:54;8.30;;;6.40;;
58784;SDS011;44557;51.862;19.378;2023-04-01T09:05:17;7.60;;;6.20;;
58784;SDS011;44557;51.862;19.378;2023-04-01T09:07:40;7.70;;;6.30;;
58784;SDS011;44557;51.862;19.378;2023-04-01T09:20:01;9.90;;;6.90;;
58784;SDS011;44557;51.862;19.378;2023-04-01T09:24:28;9.00;;;6.80;;
58784;SDS011;44557;51.862;19.378;2023-04-01T09:31:26;11.40;;;8.00;;
58784;SDS011;44557;51.862;19.378;2023-04-01T09:36:24;9.10;;;7.30;;
58784;SDS011;44557;51.862;19.378;2023-04-01T09:43:06;9.90;;;8.20;;
58784;SDS011;44557;51.862;19.378;2023-04-01T09:50:48;9.90;;;8.10;;
58784;SDS011;44557;51.862;19.378;2023-04-01T10:01:27;11.90;;;9.10;;
58784;SDS011;44557;51.862;19.378;2023-04-01T10:09:12;10.90;;;8.60;;
58784;SDS011;44557;51.862;19.378;2023-04-01T10:11:34;11.30;;;8.40;;
58784;SDS011;44557;51.862;19.378;2023-04-01T10:25:57;9.80;;;8.00;;
58784;SDS011;44557;51.862;19.378;2023-04-01T10:28:33;10.00;;;7.70;;
58784;SDS011;44557;51.862;19.378;2023-04-01T10:40:31;9.00;;;6.40;;
58784;SDS011;44557;51.862;19.378;2023-04-01T10:50:24;7.80;;;5.40;;
58784;SDS011;44557;51.862;19.378;2023-04-01T11:06:47;6.90;;;4.60;;
58784;SDS011;44557;51.862;19.378;2023-04-01T11:11:34;8.50;;;4.40;;
58784;SDS011;44557;51.862;19.378;2023-04-01T11:23:08;6.20;;;4.00;;
58784;SDS011;44557;51.862;19.378;2023-04-01T11:27:43;6.10;;;3.40;;
58784;SDS011;44557;51.862;19.378;2023-04-01T11:32:20;5.10;;;3.30;;
58784;SDS011;44557;51.862;19.378;2023-04-01T11:41:26;3.50;;;2.30;;
58784;SDS011;44557;51.862;19.378;2023-04-01T11:51:30;3.30;;;2.30;;
58784;SDS011;44557;51.862;19.378;2023-04-01T11:56:11;3.60;;;2.50;;
58784;SDS011;44557;51.862;19.378;2023-04-01T12:19:48;6.40;;;3.30;;
58784;SDS011;44557;51.862;19.378;2023-04-01T12:24:40;6.10;;;3.60;;
58784;SDS011;44557;51.862;19.378;2023-04-01T12:56:50;7.30;;;4.90;;
58784;SDS011;44557;51.862;19.378;2023-04-01T13:09:02;8.50;;;6.10;;
58784;SDS011;44557;51.862;19.378;2023-04-01T13:27:55;9.30;;;6.50;;
58784;SDS011;44557;51.862;19.378;2023-04-01T13:33:04;9.20;;;6.10;;
58784;SDS011;44557;51.862;19.378;2023-04-01T13:37:54;8.00;;;5.60;;
58784;SDS011;44557;51.862;19.378;2023-04-01T13:42:28;8.00;;;5.50;;
58784;SDS011;44557;51.862;19.378;2023-04-01T13:44:55;8.60;;;5.70;;
58784;SDS011;44557;51.862;19.378;2023-04-01T13:47:07;8.30;;;5.80;;
58784;SDS011;44557;51.862;19.378;2023-04-01T13:51:59;9.60;;;6.30;;
58784;SDS011;44557;51.862;19.378;2023-04-01T13:54:16;8.70;;;6.30;;
58784;SDS011;44557;51.862;19.378;2023-04-01T13:56:44;9.20;;;6.60;;
58784;SDS011;44557;51.862;19.378;2023-04-01T13:59:02;8.50;;;6.40;;
58784;SDS011;44557;51.862;19.378;2023-04-01T14:01:05;8.80;;;6.40;;
58784;SDS011;44557;51.862;19.378;2023-04-01T14:05:51;10.20;;;6.80;;
58784;SDS011;44557;51.862;19.378;2023-04-01T14:08:06;9.00;;;6.60;;
58784;SDS011;44557;51.862;19.378;2023-04-01T14:10:18;9.10;;;6.60;;
58784;SDS011;44557;51.862;19.378;2023-04-01T14:14:54;10.40;;;7.60;;
58784;SDS011;44557;51.862;19.378;2023-04-01T14:41:19;15.20;;;10.60;;
58784;SDS011;44557;51.862;19.378;2023-04-01T14:43:54;16.10;;;11.90;;
58784;SDS011;44557;51.862;19.378;2023-04-01T14:47:04;17.40;;;11.10;;
58784;SDS011;44557;51.862;19.378;2023-04-01T14:51:33;16.80;;;13.10;;
58784;SDS011;44557;51.862;19.378;2023-04-01T14:53:38;17.90;;;11.90;;
58784;SDS011;44557;51.862;19.378;2023-04-01T14:57:58;19.60;;;13.90;;
58784;SDS011;44557;51.862;19.378;2023-04-01T15:07:01;17.00;;;12.30;;
58784;SDS011;44557;51.862;19.378;2023-04-01T15:09:07;15.20;;;10.70;;
58784;SDS011;44557;51.862;19.378;2023-04-01T15:25:17;16.80;;;13.00;;
58784;SDS011;44557;51.862;19.378;2023-04-01T15:30:02;14.90;;;11.00;;
58784;SDS011;44557;51.862;19.378;2023-04-01T15:35:14;15.60;;;11.10;;
58784;SDS011;44557;51.862;19.378;2023-04-01T15:40:03;15.00;;;11.60;;
58784;SDS011;44557;51.862;19.378;2023-04-01T15:46:53;13.80;;;10.50;;
58784;SDS011;44557;51.862;19.378;2023-04-01T15:51:26;14.30;;;10.20;;
58784;SDS011;44557;51.862;19.378;2023-04-01T16:08:59;13.10;;;9.70;;
58784;SDS011;44557;51.862;19.378;2023-04-01T16:13:46;15.00;;;10.80;;
58784;SDS011;44557;51.862;19.378;2023-04-01T16:18:27;13.50;;;10.60;;
58784;SDS011;44557;51.862;19.378;2023-04-01T16:20:50;15.00;;;11.20;;
58784;SDS011;44557;51.862;19.378;2023-04-01T16:23:03;14.80;;;11.00;;
58784;SDS011;44557;51.862;19.378;2023-04-01T16:25:19;15.50;;;11.10;;
58784;SDS011;44557;51.862;19.378;2023-04-01T16:31:50;14.70;;;9.60;;
58784;SDS011;44557;51.862;19.378;2023-04-01T16:41:30;15.60;;;10.40;;
58784;SDS011;44557;51.862;19.378;2023-04-01T16:43:49;14.10;;;10.00;;
58784;SDS011;44557;51.862;19.378;2023-04-01T16:46:08;14.60;;;10.90;;
58784;SDS011;44557;51.862;19.378;2023-04-01T16:48:22;13.00;;;10.10;;
58784;SDS011;44557;51.862;19.378;2023-04-01T16:53:13;15.10;;;10.80;;
58784;SDS011;44557;51.862;19.378;2023-04-01T16:55:19;17.50;;;11.80;;
58784;SDS011;44557;51.862;19.378;2023-04-01T16:57:23;15.50;;;10.80;;
58784;SDS011;44557;51.862;19.378;2023-04-01T16:59:35;14.80;;;11.10;;
58784;SDS011;44557;51.862;19.378;2023-04-01T17:04:14;15.20;;;10.40;;
58784;SDS011;44557;51.862;19.378;2023-04-01T17:06:40;17.70;;;12.70;;
58784;SDS011;44557;51.862;19.378;2023-04-01T17:08:55;16.50;;;11.30;;
58784;SDS011;44557;51.862;19.378;2023-04-01T17:15:42;17.10;;;11.50;;
58784;SDS011;44557;51.862;19.378;2023-04-01T17:18:01;17.60;;;11.80;;
58784;SDS011;44557;51.862;19.378;2023-04-01T17:25:09;19.00;;;12.80;;
58784;SDS011;44557;51.862;19.378;2023-04-01T17:27:34;18.70;;;13.10;;
58784;SDS011;44557;51.862;19.378;2023-04-01T17:32:12;19.10;;;13.20;;
58784;SDS011;44557;51.862;19.378;2023-04-01T17:34:40;18.90;;;12.90;;
58784;SDS011;44557;51.862;19.378;2023-04-01T17:41:31;18.90;;;12.80;;
58784;SDS011;44557;51.862;19.378;2023-04-01T17:50:58;20.30;;;13.50;;
58784;SDS011;44557;51.862;19.378;2023-04-01T17:53:11;18.80;;;12.70;;
58784;SDS011;44557;51.862;19.378;2023-04-01T17:55:35;18.60;;;13.10;;
58784;SDS011;44557;51.862;19.378;2023-04-01T18:13:51;20.20;;;13.10;;
58784;SDS011;44557;51.862;19.378;2023-04-01T18:23:30;17.70;;;12.80;;
58784;SDS011;44557;51.862;19.378;2023-04-01T18:25:37;20.90;;;13.80;;
58784;SDS011;44557;51.862;19.378;2023-04-01T18:27:43;20.10;;;13.20;;
58784;SDS011;44557;51.862;19.378;2023-04-01T18:29:51;20.90;;;13.70;;
58784;SDS011;44557;51.862;19.378;2023-04-01T18:32:00;19.50;;;13.20;;
58784;SDS011;44557;51.862;19.378;2023-04-01T18:34:17;18.00;;;13.10;;
58784;SDS011;44557;51.862;19.378;2023-04-01T18:36:39;18.50;;;13.30;;
58784;SDS011;44557;51.862;19.378;2023-04-01T18:38:55;17.10;;;12.70;;
58784;SDS011;44557;51.862;19.378;2023-04-01T18:41:19;19.00;;;12.90;;
58784;SDS011;44557;51.862;19.378;2023-04-01T18:43:33;18.20;;;12.10;;
58784;SDS011;44557;51.862;19.378;2023-04-01T18:52:34;18.30;;;12.90;;
58784;SDS011;44557;51.862;19.378;2023-04-01T18:54:43;18.10;;;13.70;;
58784;SDS011;44557;51.862;19.378;2023-04-01T18:56:50;18.10;;;12.30;;
58784;SDS011;44557;51.862;19.378;2023-04-01T18:59:04;16.00;;;12.10;;
58784;SDS011;44557;51.862;19.378;2023-04-01T19:03:34;17.00;;;12.10;;
58784;SDS011;44557;51.862;19.378;2023-04-01T19:05:40;14.70;;;11.90;;
58784;SDS011;44557;51.862;19.378;2023-04-01T19:07:53;15.40;;;11.80;;
58784;SDS011;44557;51.862;19.378;2023-04-01T19:10:00;15.00;;;12.10;;
58784;SDS011;44557;51.862;19.378;2023-04-01T19:21:21;18.70;;;13.80;;
58784;SDS011;44557;51.862;19.378;2023-04-01T19:25:55;17.40;;;13.50;;
58784;SDS011;44557;51.862;19.378;2023-04-01T19:38:31;16.90;;;13.00;;
58784;SDS011;44557;51.862;19.378;2023-04-01T19:40:44;18.40;;;13.00;;
58784;SDS011;44557;51.862;19.378;2023-04-01T19:45:07;16.70;;;12.90;;
58784;SDS011;44557;51.862;19.378;2023-04-01T19:47:44;16.70;;;12.80;;
58784;SDS011;44557;51.862;19.378;2023-04-01T19:50:10;16.10;;;12.10;;
58784;SDS011;44557;51.862;19.378;2023-04-01T19:52:23;17.10;;;13.10;;
58784;SDS011;44557;51.862;19.378;2023-04-01T19:56:52;17.90;;;13.50;;
58784;SDS011;44557;51.862;19.378;2023-04-01T20:01:32;18.10;;;12.60;;
58784;SDS011;44557;51.862;19.378;2023-04-01T20:03:49;14.90;;;11.10;;
58784;SDS011;44557;51.862;19.378;2023-04-01T20:14:58;17.30;;;12.50;;
58784;SDS011;44557;51.862;19.378;2023-04-01T20:21:36;18.00;;;12.10;;
58784;SDS011;44557;51.862;19.378;2023-04-01T20:25:56;16.80;;;11.90;;
58784;SDS011;44557;51.862;19.378;2023-04-01T20:30:26;15.60;;;11.90;;
58784;SDS011;44557;51.862;19.378;2023-04-01T20:37:14;13.40;;;9.70;;
58784;SDS011;44557;51.862;19.378;2023-04-01T20:39:26;12.10;;;8.80;;
58784;SDS011;44557;51.862;19.378;2023-04-01T20:42:05;12.30;;;9.30;;
58784;SDS011;44557;51.862;19.378;2023-04-01T20:46:56;12.40;;;9.60;;
58784;SDS011;44557;51.862;19.378;2023-04-01T20:51:54;11.20;;;8.50;;
58784;SDS011;44557;51.862;19.378;2023-04-01T20:56:08;12.70;;;9.10;;
58784;SDS011;44557;51.862;19.378;2023-04-01T20:58:31;10.50;;;8.20;;
58784;SDS011;44557;51.862;19.378;2023-04-01T21:02:59;12.60;;;9.10;;
58784;SDS011;44557;51.862;19.378;2023-04-01T21:09:49;10.90;;;8.00;;
58784;SDS011;44557;51.862;19.378;2023-04-01T21:12:09;10.30;;;8.00;;
58784;SDS011;44557;51.862;19.378;2023-04-01T21:26:24;9.80;;;7.00;;
58784;SDS011;44557;51.862;19.378;2023-04-01T21:30:52;11.00;;;8.00;;
58784;SDS011;44557;51.862;19.378;2023-04-01T21:33:02;12.10;;;7.80;;
58784;SDS011;44557;51.862;19.378;2023-04-01T21:37:58;11.10;;;7.60;;
58784;SDS011;44557;51.862;19.378;2023-04-01T21:40:24;11.70;;;8.00;;